LEOR weather

Parque De Bomberos De Orriols Heliport
Orriols, Catalonia, Spain

Public forecast

Using degrees Celsius for public forecast. Weather courtesy of forecast.io.

Closest aviation weather report (METAR) to Parque De Bomberos De Orriols Heliport

Closest report is Girona Airport, 15.3 nm (28.3 km) SSW. Retrieved 2020/08/08 05:30 UTC (27 minutes ago):

LEGE 080530Z 29002KT 9999 FEW040 20/19 Q1019

Closest aviation forecast (TAF) to Parque De Bomberos De Orriols Heliport

Closest forecast is Girona Airport, 15.3 nm (28.3 km) SSW. Retrieved 2020-08-08 00:27 UTC (5 hours ago):

TAF LEGE 072300Z 0800/0824 VRB03KT 9999 FEW040 TX36/0813Z TN21/0805Z BECMG 0810/0812 18010KT